sensor_id;sensor_type;location;lat;lon;timestamp;temperature;humidity
55173;DHT22;41061;52.822;6.860;2022-10-22T00:02:23;12.50;99.90
55173;DHT22;41061;52.822;6.860;2022-10-22T00:04:49;12.40;99.90
55173;DHT22;41061;52.822;6.860;2022-10-22T00:07:17;12.40;99.90
55173;DHT22;41061;52.822;6.860;2022-10-22T00:09:43;12.50;99.90
55173;DHT22;41061;52.822;6.860;2022-10-22T00:12:09;12.50;99.90
55173;DHT22;41061;52.822;6.860;2022-10-22T00:14:36;12.50;99.90
55173;DHT22;41061;52.822;6.860;2022-10-22T00:17:02;12.60;99.90
55173;DHT22;41061;52.822;6.860;2022-10-22T00:19:27;12.60;99.90
55173;DHT22;41061;52.822;6.860;2022-10-22T00:21:53;12.60;99.90
55173;DHT22;41061;52.822;6.860;2022-10-22T00:24:19;12.60;99.90
55173;DHT22;41061;52.822;6.860;2022-10-22T00:26:45;12.60;99.90
55173;DHT22;41061;52.822;6.860;2022-10-22T00:29:11;12.60;99.90
55173;DHT22;41061;52.822;6.860;2022-10-22T00:31:37;12.60;99.90
55173;DHT22;41061;52.822;6.860;2022-10-22T00:34:02;12.60;99.90
55173;DHT22;41061;52.822;6.860;2022-10-22T00:36:28;12.60;99.90
55173;DHT22;41061;52.822;6.860;2022-10-22T00:38:54;12.60;99.90
55173;DHT22;41061;52.822;6.860;2022-10-22T00:41:20;12.50;99.90
55173;DHT22;41061;52.822;6.860;2022-10-22T00:43:53;12.60;99.90
55173;DHT22;41061;52.822;6.860;2022-10-22T00:46:19;12.50;99.90
55173;DHT22;41061;52.822;6.860;2022-10-22T00:48:45;12.50;99.90
55173;DHT22;41061;52.822;6.860;2022-10-22T00:51:11;12.50;99.90
55173;DHT22;41061;52.822;6.860;2022-10-22T00:53:43;12.50;99.90
55173;DHT22;41061;52.822;6.860;2022-10-22T00:56:10;12.50;99.90
55173;DHT22;41061;52.822;6.860;2022-10-22T00:58:42;12.50;99.90
55173;DHT22;41061;52.822;6.860;2022-10-22T01:01:12;12.50;99.90
55173;DHT22;41061;52.822;6.860;2022-10-22T01:03:40;12.50;99.90
55173;DHT22;41061;52.822;6.860;2022-10-22T01:06:06;12.50;99.90
55173;DHT22;41061;52.822;6.860;2022-10-22T01:08:36;12.50;99.90
55173;DHT22;41061;52.822;6.860;2022-10-22T01:13:47;12.50;99.90
55173;DHT22;41061;52.822;6.860;2022-10-22T01:22:00;12.40;99.90
55173;DHT22;41061;52.822;6.860;2022-10-22T01:30:13;12.50;99.90
55173;DHT22;41061;52.822;6.860;2022-10-22T01:32:45;12.50;99.90
55173;DHT22;41061;52.822;6.860;2022-10-22T01:35:13;12.50;99.90
55173;DHT22;41061;52.822;6.860;2022-10-22T01:37:49;12.40;99.90
55173;DHT22;41061;52.822;6.860;2022-10-22T01:40:16;12.40;99.90
55173;DHT22;41061;52.822;6.860;2022-10-22T01:42:52;12.40;99.90
55173;DHT22;41061;52.822;6.860;2022-10-22T01:45:18;12.40;99.90
55173;DHT22;41061;52.822;6.860;2022-10-22T01:50:39;12.30;99.90
55173;DHT22;41061;52.822;6.860;2022-10-22T01:58:40;12.30;99.90
55173;DHT22;41061;52.822;6.860;2022-10-22T02:04:20;12.30;99.90
55173;DHT22;41061;52.822;6.860;2022-10-22T02:06:48;12.30;99.90
55173;DHT22;41061;52.822;6.860;2022-10-22T02:09:16;12.30;99.90
55173;DHT22;41061;52.822;6.860;2022-10-22T02:11:43;12.30;99.90
55173;DHT22;41061;52.822;6.860;2022-10-22T02:14:10;12.30;99.90
55173;DHT22;41061;52.822;6.860;2022-10-22T02:16:40;12.30;99.90
55173;DHT22;41061;52.822;6.860;2022-10-22T02:21:49;12.20;99.90
55173;DHT22;41061;52.822;6.860;2022-10-22T02:24:15;12.20;99.90
55173;DHT22;41061;52.822;6.860;2022-10-22T02:26:51;12.20;99.90
55173;DHT22;41061;52.822;6.860;2022-10-22T02:29:38;12.20;99.90
55173;DHT22;41061;52.822;6.860;2022-10-22T02:32:05;12.30;99.90
55173;DHT22;41061;52.822;6.860;2022-10-22T02:34:33;12.20;99.90
55173;DHT22;41061;52.822;6.860;2022-10-22T02:37:00;12.30;99.90
55173;DHT22;41061;52.822;6.860;2022-10-22T02:39:27;12.30;99.90
55173;DHT22;41061;52.822;6.860;2022-10-22T02:41:54;12.30;99.90
55173;DHT22;41061;52.822;6.860;2022-10-22T02:44:21;12.30;99.90
55173;DHT22;41061;52.822;6.860;2022-10-22T02:46:47;12.40;99.90
55173;DHT22;41061;52.822;6.860;2022-10-22T02:51:38;12.40;99.90
55173;DHT22;41061;52.822;6.860;2022-10-22T02:54:04;12.40;99.90
55173;DHT22;41061;52.822;6.860;2022-10-22T02:56:30;12.40;99.90
55173;DHT22;41061;52.822;6.860;2022-10-22T02:58:56;12.40;99.90
55173;DHT22;41061;52.822;6.860;2022-10-22T03:01:22;12.30;99.90
55173;DHT22;41061;52.822;6.860;2022-10-22T03:03:48;12.30;99.90
55173;DHT22;41061;52.822;6.860;2022-10-22T03:06:14;12.30;99.90
55173;DHT22;41061;52.822;6.860;2022-10-22T03:08:40;12.40;99.90
55173;DHT22;41061;52.822;6.860;2022-10-22T03:11:06;12.40;99.90
55173;DHT22;41061;52.822;6.860;2022-10-22T03:13:31;12.40;99.90
55173;DHT22;41061;52.822;6.860;2022-10-22T03:15:57;12.40;99.90
55173;DHT22;41061;52.822;6.860;2022-10-22T03:18:23;12.40;99.90
55173;DHT22;41061;52.822;6.860;2022-10-22T03:20:49;12.40;99.90
55173;DHT22;41061;52.822;6.860;2022-10-22T03:23:17;12.40;99.90
55173;DHT22;41061;52.822;6.860;2022-10-22T03:25:46;12.40;99.90
55173;DHT22;41061;52.822;6.860;2022-10-22T03:28:14;12.30;99.90
55173;DHT22;41061;52.822;6.860;2022-10-22T03:30:41;12.40;99.90
55173;DHT22;41061;52.822;6.860;2022-10-22T03:33:07;12.30;99.90
55173;DHT22;41061;52.822;6.860;2022-10-22T03:35:38;12.30;99.90
55173;DHT22;41061;52.822;6.860;2022-10-22T03:38:05;12.30;99.90
55173;DHT22;41061;52.822;6.860;2022-10-22T03:40:30;12.30;99.90
55173;DHT22;41061;52.822;6.860;2022-10-22T03:42:57;12.30;99.90
55173;DHT22;41061;52.822;6.860;2022-10-22T03:45:23;12.30;99.90
55173;DHT22;41061;52.822;6.860;2022-10-22T03:47:49;12.30;99.90
55173;DHT22;41061;52.822;6.860;2022-10-22T03:50:14;12.30;99.90
55173;DHT22;41061;52.822;6.860;2022-10-22T03:52:41;12.30;99.90
55173;DHT22;41061;52.822;6.860;2022-10-22T03:55:07;12.40;99.90
55173;DHT22;41061;52.822;6.860;2022-10-22T03:57:33;12.40;99.90
55173;DHT22;41061;52.822;6.860;2022-10-22T03:59:59;12.40;99.90
55173;DHT22;41061;52.822;6.860;2022-10-22T04:02:25;12.40;99.90
55173;DHT22;41061;52.822;6.860;2022-10-22T04:04:50;12.50;99.90
55173;DHT22;41061;52.822;6.860;2022-10-22T04:07:16;12.40;99.90
55173;DHT22;41061;52.822;6.860;2022-10-22T04:09:42;12.50;99.90
55173;DHT22;41061;52.822;6.860;2022-10-22T04:12:08;12.40;99.90
55173;DHT22;41061;52.822;6.860;2022-10-22T04:14:34;12.50;99.90
55173;DHT22;41061;52.822;6.860;2022-10-22T04:17:00;12.40;99.90
55173;DHT22;41061;52.822;6.860;2022-10-22T04:19:26;12.40;99.90
55173;DHT22;41061;52.822;6.860;2022-10-22T04:21:51;12.30;99.90
55173;DHT22;41061;52.822;6.860;2022-10-22T04:24:17;12.30;99.90
55173;DHT22;41061;52.822;6.860;2022-10-22T04:26:43;12.30;99.90
55173;DHT22;41061;52.822;6.860;2022-10-22T04:29:09;12.20;99.90
55173;DHT22;41061;52.822;6.860;2022-10-22T04:31:35;12.20;99.90
55173;DHT22;41061;52.822;6.860;2022-10-22T04:34:01;12.20;99.90
55173;DHT22;41061;52.822;6.860;2022-10-22T04:36:27;12.20;99.90
55173;DHT22;41061;52.822;6.860;2022-10-22T04:38:58;12.20;99.90
55173;DHT22;41061;52.822;6.860;2022-10-22T04:41:27;12.20;99.90
55173;DHT22;41061;52.822;6.860;2022-10-22T04:43:54;12.20;99.90
55173;DHT22;41061;52.822;6.860;2022-10-22T04:46:21;12.20;99.90
55173;DHT22;41061;52.822;6.860;2022-10-22T04:48:47;12.10;99.90
55173;DHT22;41061;52.822;6.860;2022-10-22T04:51:16;12.10;99.90
55173;DHT22;41061;52.822;6.860;2022-10-22T04:53:42;12.10;99.90
55173;DHT22;41061;52.822;6.860;2022-10-22T04:56:16;12.10;99.90
55173;DHT22;41061;52.822;6.860;2022-10-22T04:58:46;12.10;99.90
55173;DHT22;41061;52.822;6.860;2022-10-22T05:01:18;12.10;99.90
55173;DHT22;41061;52.822;6.860;2022-10-22T05:03:45;12.10;99.90
55173;DHT22;41061;52.822;6.860;2022-10-22T05:06:11;12.10;99.90
55173;DHT22;41061;52.822;6.860;2022-10-22T05:08:37;12.10;99.90
55173;DHT22;41061;52.822;6.860;2022-10-22T05:11:17;12.10;99.90
55173;DHT22;41061;52.822;6.860;2022-10-22T05:13:44;12.10;99.90
55173;DHT22;41061;52.822;6.860;2022-10-22T05:16:10;12.10;99.90
55173;DHT22;41061;52.822;6.860;2022-10-22T05:18:37;12.10;99.90
55173;DHT22;41061;52.822;6.860;2022-10-22T05:21:03;12.10;99.90
55173;DHT22;41061;52.822;6.860;2022-10-22T05:23:30;12.10;99.90
55173;DHT22;41061;52.822;6.860;2022-10-22T05:25:56;12.10;99.90
55173;DHT22;41061;52.822;6.860;2022-10-22T05:28:22;12.10;99.90
55173;DHT22;41061;52.822;6.860;2022-10-22T05:30:55;12.20;99.90
55173;DHT22;41061;52.822;6.860;2022-10-22T05:33:21;12.20;99.90
55173;DHT22;41061;52.822;6.860;2022-10-22T05:35:50;12.20;99.90
55173;DHT22;41061;52.822;6.860;2022-10-22T05:38:17;12.20;99.90
55173;DHT22;41061;52.822;6.860;2022-10-22T05:40:44;12.20;99.90
55173;DHT22;41061;52.822;6.860;2022-10-22T05:43:10;12.10;99.90
55173;DHT22;41061;52.822;6.860;2022-10-22T05:45:40;12.10;99.90
55173;DHT22;41061;52.822;6.860;2022-10-22T05:48:07;12.20;99.90
55173;DHT22;41061;52.822;6.860;2022-10-22T05:50:37;12.10;99.90
55173;DHT22;41061;52.822;6.860;2022-10-22T05:53:04;12.10;99.90
55173;DHT22;41061;52.822;6.860;2022-10-22T05:55:34;12.20;99.90
55173;DHT22;41061;52.822;6.860;2022-10-22T05:58:02;12.20;99.90
55173;DHT22;41061;52.822;6.860;2022-10-22T06:00:28;12.20;99.90
55173;DHT22;41061;52.822;6.860;2022-10-22T06:02:54;12.30;99.90
55173;DHT22;41061;52.822;6.860;2022-10-22T06:05:20;12.30;99.90
55173;DHT22;41061;52.822;6.860;2022-10-22T06:07:46;12.30;99.90
55173;DHT22;41061;52.822;6.860;2022-10-22T06:10:16;12.30;99.90
55173;DHT22;41061;52.822;6.860;2022-10-22T06:12:43;12.40;99.90
55173;DHT22;41061;52.822;6.860;2022-10-22T06:15:11;12.40;99.90
55173;DHT22;41061;52.822;6.860;2022-10-22T06:17:37;12.30;99.90
55173;DHT22;41061;52.822;6.860;2022-10-22T06:20:03;12.40;99.90
55173;DHT22;41061;52.822;6.860;2022-10-22T06:22:29;12.40;99.90
55173;DHT22;41061;52.822;6.860;2022-10-22T06:24:54;12.40;99.90
55173;DHT22;41061;52.822;6.860;2022-10-22T06:27:20;12.40;99.90
55173;DHT22;41061;52.822;6.860;2022-10-22T06:29:47;12.40;99.90
55173;DHT22;41061;52.822;6.860;2022-10-22T06:32:13;12.40;99.90
55173;DHT22;41061;52.822;6.860;2022-10-22T06:34:38;12.40;99.90
55173;DHT22;41061;52.822;6.860;2022-10-22T06:37:04;12.40;99.90
55173;DHT22;41061;52.822;6.860;2022-10-22T06:39:30;12.40;99.90
55173;DHT22;41061;52.822;6.860;2022-10-22T06:41:56;12.40;99.90
55173;DHT22;41061;52.822;6.860;2022-10-22T06:44:21;12.50;99.90
55173;DHT22;41061;52.822;6.860;2022-10-22T06:46:51;12.60;99.90
55173;DHT22;41061;52.822;6.860;2022-10-22T06:49:17;12.60;99.90
55173;DHT22;41061;52.822;6.860;2022-10-22T06:51:43;12.70;99.90
55173;DHT22;41061;52.822;6.860;2022-10-22T06:54:09;12.70;99.90
55173;DHT22;41061;52.822;6.860;2022-10-22T06:56:35;12.70;99.90
55173;DHT22;41061;52.822;6.860;2022-10-22T06:59:01;12.70;99.90
55173;DHT22;41061;52.822;6.860;2022-10-22T07:01:29;12.70;99.90
55173;DHT22;41061;52.822;6.860;2022-10-22T07:03:55;12.70;99.90
55173;DHT22;41061;52.822;6.860;2022-10-22T07:06:21;12.80;99.90
55173;DHT22;41061;52.822;6.860;2022-10-22T07:08:48;12.80;99.90
55173;DHT22;41061;52.822;6.860;2022-10-22T07:11:22;12.90;99.90
55173;DHT22;41061;52.822;6.860;2022-10-22T07:13:49;12.90;99.90
55173;DHT22;41061;52.822;6.860;2022-10-22T07:16:16;13.00;99.90
55173;DHT22;41061;52.822;6.860;2022-10-22T07:18:43;13.00;99.90
55173;DHT22;41061;52.822;6.860;2022-10-22T07:21:10;13.10;99.90
55173;DHT22;41061;52.822;6.860;2022-10-22T07:23:36;13.20;99.90
55173;DHT22;41061;52.822;6.860;2022-10-22T07:26:03;13.20;99.90
55173;DHT22;41061;52.822;6.860;2022-10-22T07:28:32;13.30;99.90
55173;DHT22;41061;52.822;6.860;2022-10-22T07:30:58;13.30;99.90
55173;DHT22;41061;52.822;6.860;2022-10-22T07:33:25;13.40;99.90
55173;DHT22;41061;52.822;6.860;2022-10-22T07:35:57;13.40;99.90
55173;DHT22;41061;52.822;6.860;2022-10-22T07:38:23;13.60;99.90
55173;DHT22;41061;52.822;6.860;2022-10-22T07:40:49;13.70;99.90
55173;DHT22;41061;52.822;6.860;2022-10-22T07:43:14;13.70;99.90
55173;DHT22;41061;52.822;6.860;2022-10-22T07:45:40;13.80;99.90
55173;DHT22;41061;52.822;6.860;2022-10-22T07:48:06;13.90;99.90
55173;DHT22;41061;52.822;6.860;2022-10-22T07:50:32;14.00;99.90
55173;DHT22;41061;52.822;6.860;2022-10-22T07:52:58;14.10;99.90
55173;DHT22;41061;52.822;6.860;2022-10-22T07:55:24;14.20;99.90
55173;DHT22;41061;52.822;6.860;2022-10-22T07:57:49;14.30;99.90
55173;DHT22;41061;52.822;6.860;2022-10-22T08:00:16;14.40;99.90
55173;DHT22;41061;52.822;6.860;2022-10-22T08:02:42;14.40;99.90
55173;DHT22;41061;52.822;6.860;2022-10-22T08:05:08;14.60;99.90
55173;DHT22;41061;52.822;6.860;2022-10-22T08:07:34;14.60;99.90
55173;DHT22;41061;52.822;6.860;2022-10-22T08:09:59;14.60;99.90
55173;DHT22;41061;52.822;6.860;2022-10-22T08:12:25;14.60;99.90
55173;DHT22;41061;52.822;6.860;2022-10-22T08:14:51;14.60;99.90
55173;DHT22;41061;52.822;6.860;2022-10-22T08:17:16;14.60;99.90
55173;DHT22;41061;52.822;6.860;2022-10-22T08:19:42;14.60;99.90
55173;DHT22;41061;52.822;6.860;2022-10-22T08:22:08;14.50;99.90
55173;DHT22;41061;52.822;6.860;2022-10-22T08:24:33;14.60;99.90
55173;DHT22;41061;52.822;6.860;2022-10-22T08:26:59;14.60;99.90
55173;DHT22;41061;52.822;6.860;2022-10-22T08:29:25;14.60;99.90
55173;DHT22;41061;52.822;6.860;2022-10-22T08:31:52;14.60;99.90
55173;DHT22;41061;52.822;6.860;2022-10-22T08:34:18;14.60;99.90
55173;DHT22;41061;52.822;6.860;2022-10-22T08:36:45;14.60;99.90
55173;DHT22;41061;52.822;6.860;2022-10-22T08:39:11;14.50;99.90
55173;DHT22;41061;52.822;6.860;2022-10-22T08:42:04;14.60;99.90
55173;DHT22;41061;52.822;6.860;2022-10-22T08:45:05;14.60;99.90
55173;DHT22;41061;52.822;6.860;2022-10-22T08:50:04;14.60;99.90
55173;DHT22;41061;52.822;6.860;2022-10-22T08:52:32;14.60;99.90
55173;DHT22;41061;52.822;6.860;2022-10-22T08:55:01;14.70;99.90
55173;DHT22;41061;52.822;6.860;2022-10-22T09:07:56;15.20;99.90
55173;DHT22;41061;52.822;6.860;2022-10-22T09:10:27;15.30;99.90
55173;DHT22;41061;52.822;6.860;2022-10-22T09:12:53;15.40;99.90
55173;DHT22;41061;52.822;6.860;2022-10-22T09:15:20;15.40;99.90
55173;DHT22;41061;52.822;6.860;2022-10-22T09:18:09;15.50;99.90
55173;DHT22;41061;52.822;6.860;2022-10-22T09:20:47;15.60;99.90
55173;DHT22;41061;52.822;6.860;2022-10-22T09:23:35;15.60;99.90
55173;DHT22;41061;52.822;6.860;2022-10-22T09:26:13;15.70;99.90
55173;DHT22;41061;52.822;6.860;2022-10-22T09:28:39;15.70;99.90
55173;DHT22;41061;52.822;6.860;2022-10-22T09:31:13;15.80;99.90
55173;DHT22;41061;52.822;6.860;2022-10-22T09:33:44;15.80;99.90
55173;DHT22;41061;52.822;6.860;2022-10-22T09:36:19;15.80;99.90
55173;DHT22;41061;52.822;6.860;2022-10-22T09:38:48;15.90;99.90
55173;DHT22;41061;52.822;6.860;2022-10-22T09:41:15;16.00;99.90
55173;DHT22;41061;52.822;6.860;2022-10-22T09:43:41;16.00;99.90
55173;DHT22;41061;52.822;6.860;2022-10-22T09:46:15;16.00;99.90
55173;DHT22;41061;52.822;6.860;2022-10-22T09:48:50;16.00;99.90
55173;DHT22;41061;52.822;6.860;2022-10-22T09:51:51;16.10;99.90
55173;DHT22;41061;52.822;6.860;2022-10-22T09:54:23;16.10;99.90
55173;DHT22;41061;52.822;6.860;2022-10-22T09:56:56;16.10;99.90
55173;DHT22;41061;52.822;6.860;2022-10-22T09:59:31;16.10;99.90
55173;DHT22;41061;52.822;6.860;2022-10-22T10:02:08;16.10;99.90
55173;DHT22;41061;52.822;6.860;2022-10-22T10:04:48;16.10;99.90
55173;DHT22;41061;52.822;6.860;2022-10-22T10:07:20;16.00;99.90
55173;DHT22;41061;52.822;6.860;2022-10-22T10:09:46;16.00;99.90
55173;DHT22;41061;52.822;6.860;2022-10-22T10:15:27;15.90;99.90
55173;DHT22;41061;52.822;6.860;2022-10-22T10:20:40;15.90;99.90
55173;DHT22;41061;52.822;6.860;2022-10-22T10:34:01;15.80;99.90
55173;DHT22;41061;52.822;6.860;2022-10-22T10:36:38;15.80;99.90
55173;DHT22;41061;52.822;6.860;2022-10-22T10:39:15;15.80;99.90
55173;DHT22;41061;52.822;6.860;2022-10-22T10:42:11;15.80;99.90
55173;DHT22;41061;52.822;6.860;2022-10-22T10:50:23;15.80;99.90
55173;DHT22;41061;52.822;6.860;2022-10-22T10:53:13;15.90;99.90
55173;DHT22;41061;52.822;6.860;2022-10-22T10:56:04;15.90;99.90
55173;DHT22;41061;52.822;6.860;2022-10-22T10:58:41;16.00;99.90
55173;DHT22;41061;52.822;6.860;2022-10-22T11:01:26;16.10;99.90
55173;DHT22;41061;52.822;6.860;2022-10-22T11:06:32;16.10;99.90
55173;DHT22;41061;52.822;6.860;2022-10-22T11:09:04;16.20;99.90
55173;DHT22;41061;52.822;6.860;2022-10-22T11:11:40;16.20;99.90
55173;DHT22;41061;52.822;6.860;2022-10-22T11:17:00;16.30;99.90
55173;DHT22;41061;52.822;6.860;2022-10-22T11:19:56;16.30;99.90
55173;DHT22;41061;52.822;6.860;2022-10-22T11:22:47;16.20;99.90
55173;DHT22;41061;52.822;6.860;2022-10-22T11:27:52;16.10;99.90
55173;DHT22;41061;52.822;6.860;2022-10-22T11:30:23;16.10;99.90
55173;DHT22;41061;52.822;6.860;2022-10-22T11:32:56;16.10;99.90
55173;DHT22;41061;52.822;6.860;2022-10-22T11:35:35;16.10;99.90
55173;DHT22;41061;52.822;6.860;2022-10-22T11:38:04;16.10;99.90
55173;DHT22;41061;52.822;6.860;2022-10-22T11:40:42;16.10;99.90
55173;DHT22;41061;52.822;6.860;2022-10-22T11:43:10;16.10;99.90
55173;DHT22;41061;52.822;6.860;2022-10-22T11:46:00;16.10;99.90
55173;DHT22;41061;52.822;6.860;2022-10-22T11:48:27;16.10;99.90
55173;DHT22;41061;52.822;6.860;2022-10-22T11:51:00;16.10;99.90
55173;DHT22;41061;52.822;6.860;2022-10-22T11:53:34;16.00;99.90
55173;DHT22;41061;52.822;6.860;2022-10-22T11:56:22;16.00;99.90
55173;DHT22;41061;52.822;6.860;2022-10-22T11:58:48;16.00;99.90
55173;DHT22;41061;52.822;6.860;2022-10-22T12:01:29;16.00;99.90
55173;DHT22;41061;52.822;6.860;2022-10-22T12:09:18;16.00;99.90
55173;DHT22;41061;52.822;6.860;2022-10-22T12:11:46;16.00;99.90
55173;DHT22;41061;52.822;6.860;2022-10-22T12:14:24;16.00;99.90
55173;DHT22;41061;52.822;6.860;2022-10-22T12:17:04;16.00;99.90
55173;DHT22;41061;52.822;6.860;2022-10-22T12:22:22;16.20;99.90
55173;DHT22;41061;52.822;6.860;2022-10-22T12:24:51;16.40;99.90
55173;DHT22;41061;52.822;6.860;2022-10-22T12:29:47;16.60;99.90
55173;DHT22;41061;52.822;6.860;2022-10-22T12:32:14;16.70;99.90
55173;DHT22;41061;52.822;6.860;2022-10-22T12:34:48;16.90;99.90
55173;DHT22;41061;52.822;6.860;2022-10-22T12:37:15;16.90;99.90
55173;DHT22;41061;52.822;6.860;2022-10-22T12:39:41;16.90;99.90
55173;DHT22;41061;52.822;6.860;2022-10-22T12:42:12;16.90;99.90
55173;DHT22;41061;52.822;6.860;2022-10-22T12:44:38;16.90;99.90
55173;DHT22;41061;52.822;6.860;2022-10-22T12:47:05;16.90;99.90
55173;DHT22;41061;52.822;6.860;2022-10-22T12:49:35;16.90;99.90
55173;DHT22;41061;52.822;6.860;2022-10-22T12:52:06;16.90;99.90
55173;DHT22;41061;52.822;6.860;2022-10-22T12:54:33;16.90;99.90
55173;DHT22;41061;52.822;6.860;2022-10-22T12:56:59;16.90;99.90
55173;DHT22;41061;52.822;6.860;2022-10-22T12:59:32;16.80;99.90
55173;DHT22;41061;52.822;6.860;2022-10-22T13:01:59;16.70;99.90
55173;DHT22;41061;52.822;6.860;2022-10-22T13:09:43;16.70;99.90
55173;DHT22;41061;52.822;6.860;2022-10-22T13:12:10;16.70;99.90
55173;DHT22;41061;52.822;6.860;2022-10-22T13:14:44;16.70;99.90
55173;DHT22;41061;52.822;6.860;2022-10-22T13:17:15;16.80;99.90
55173;DHT22;41061;52.822;6.860;2022-10-22T13:22:36;16.80;99.90
55173;DHT22;41061;52.822;6.860;2022-10-22T13:27:43;16.80;99.90
55173;DHT22;41061;52.822;6.860;2022-10-22T13:30:37;16.80;99.90
55173;DHT22;41061;52.822;6.860;2022-10-22T13:36:02;16.70;99.90
55173;DHT22;41061;52.822;6.860;2022-10-22T13:38:28;16.70;99.90
55173;DHT22;41061;52.822;6.860;2022-10-22T13:40:54;16.70;99.90
55173;DHT22;41061;52.822;6.860;2022-10-22T13:43:21;16.60;99.90
55173;DHT22;41061;52.822;6.860;2022-10-22T13:45:49;16.60;99.90
55173;DHT22;41061;52.822;6.860;2022-10-22T13:48:18;16.50;99.90
55173;DHT22;41061;52.822;6.860;2022-10-22T13:50:49;16.50;99.90
55173;DHT22;41061;52.822;6.860;2022-10-22T13:53:18;16.50;99.90
55173;DHT22;41061;52.822;6.860;2022-10-22T13:55:45;16.50;99.90
55173;DHT22;41061;52.822;6.860;2022-10-22T13:58:29;16.50;99.90
55173;DHT22;41061;52.822;6.860;2022-10-22T14:00:56;16.50;99.90
55173;DHT22;41061;52.822;6.860;2022-10-22T14:03:27;16.50;99.90
55173;DHT22;41061;52.822;6.860;2022-10-22T14:05:53;16.50;99.90
55173;DHT22;41061;52.822;6.860;2022-10-22T14:08:20;16.50;99.90
55173;DHT22;41061;52.822;6.860;2022-10-22T14:10:46;16.50;99.90
55173;DHT22;41061;52.822;6.860;2022-10-22T14:13:15;16.50;99.90
55173;DHT22;41061;52.822;6.860;2022-10-22T14:15:42;16.50;99.90
55173;DHT22;41061;52.822;6.860;2022-10-22T14:18:11;16.50;99.90
55173;DHT22;41061;52.822;6.860;2022-10-22T14:20:41;16.50;99.90
55173;DHT22;41061;52.822;6.860;2022-10-22T14:23:19;16.50;99.90
55173;DHT22;41061;52.822;6.860;2022-10-22T14:25:45;16.60;99.90
55173;DHT22;41061;52.822;6.860;2022-10-22T14:28:11;16.60;99.90
55173;DHT22;41061;52.822;6.860;2022-10-22T14:30:37;16.50;99.90
55173;DHT22;41061;52.822;6.860;2022-10-22T14:33:26;16.60;99.90
55173;DHT22;41061;52.822;6.860;2022-10-22T14:35:53;16.60;99.90
55173;DHT22;41061;52.822;6.860;2022-10-22T14:38:19;16.60;99.90
55173;DHT22;41061;52.822;6.860;2022-10-22T14:40:46;16.60;99.90
55173;DHT22;41061;52.822;6.860;2022-10-22T14:43:19;16.60;99.90
55173;DHT22;41061;52.822;6.860;2022-10-22T14:45:45;16.60;99.90
55173;DHT22;41061;52.822;6.860;2022-10-22T14:48:11;16.60;99.90
55173;DHT22;41061;52.822;6.860;2022-10-22T14:50:36;16.60;99.90
55173;DHT22;41061;52.822;6.860;2022-10-22T14:53:02;16.60;99.90
55173;DHT22;41061;52.822;6.860;2022-10-22T14:55:28;16.50;99.90
55173;DHT22;41061;52.822;6.860;2022-10-22T14:57:54;16.50;99.90
55173;DHT22;41061;52.822;6.860;2022-10-22T15:00:20;16.40;99.90
55173;DHT22;41061;52.822;6.860;2022-10-22T15:02:47;16.40;99.90
55173;DHT22;41061;52.822;6.860;2022-10-22T15:05:13;16.40;99.90
55173;DHT22;41061;52.822;6.860;2022-10-22T15:07:40;16.40;99.90
55173;DHT22;41061;52.822;6.860;2022-10-22T15:10:07;16.30;99.90
55173;DHT22;41061;52.822;6.860;2022-10-22T15:12:33;16.30;99.90
55173;DHT22;41061;52.822;6.860;2022-10-22T15:14:58;16.30;99.90
55173;DHT22;41061;52.822;6.860;2022-10-22T15:17:24;16.30;99.90
55173;DHT22;41061;52.822;6.860;2022-10-22T15:19:50;16.20;99.90
55173;DHT22;41061;52.822;6.860;2022-10-22T15:22:17;16.30;99.90
55173;DHT22;41061;52.822;6.860;2022-10-22T15:24:43;16.30;99.90
55173;DHT22;41061;52.822;6.860;2022-10-22T15:27:10;16.40;99.90
55173;DHT22;41061;52.822;6.860;2022-10-22T15:29:38;16.40;99.90
55173;DHT22;41061;52.822;6.860;2022-10-22T15:32:05;16.40;99.90
55173;DHT22;41061;52.822;6.860;2022-10-22T15:34:32;16.30;99.90
55173;DHT22;41061;52.822;6.860;2022-10-22T15:37:01;16.30;99.90
55173;DHT22;41061;52.822;6.860;2022-10-22T15:39:27;16.30;99.90
55173;DHT22;41061;52.822;6.860;2022-10-22T15:41:53;16.20;99.90
55173;DHT22;41061;52.822;6.860;2022-10-22T15:44:22;16.10;99.90
55173;DHT22;41061;52.822;6.860;2022-10-22T15:46:48;16.00;99.90
55173;DHT22;41061;52.822;6.860;2022-10-22T15:49:19;15.90;99.90
55173;DHT22;41061;52.822;6.860;2022-10-22T15:51:45;15.80;99.90
55173;DHT22;41061;52.822;6.860;2022-10-22T15:54:13;15.70;99.90
55173;DHT22;41061;52.822;6.860;2022-10-22T15:56:39;15.60;99.90
55173;DHT22;41061;52.822;6.860;2022-10-22T15:59:05;15.60;99.90
55173;DHT22;41061;52.822;6.860;2022-10-22T16:01:32;15.50;99.90
55173;DHT22;41061;52.822;6.860;2022-10-22T16:03:59;15.50;99.90
55173;DHT22;41061;52.822;6.860;2022-10-22T16:06:26;15.40;99.90
55173;DHT22;41061;52.822;6.860;2022-10-22T16:08:53;15.30;99.90
55173;DHT22;41061;52.822;6.860;2022-10-22T16:11:20;15.30;99.90
55173;DHT22;41061;52.822;6.860;2022-10-22T16:13:46;15.20;99.90
55173;DHT22;41061;52.822;6.860;2022-10-22T16:16:11;15.10;99.90
55173;DHT22;41061;52.822;6.860;2022-10-22T16:18:37;15.00;99.90
55173;DHT22;41061;52.822;6.860;2022-10-22T16:21:03;14.90;99.90
55173;DHT22;41061;52.822;6.860;2022-10-22T16:23:29;14.80;99.90
55173;DHT22;41061;52.822;6.860;2022-10-22T16:25:54;14.70;99.90
55173;DHT22;41061;52.822;6.860;2022-10-22T16:28:20;14.70;99.90
55173;DHT22;41061;52.822;6.860;2022-10-22T16:30:45;14.60;99.90
55173;DHT22;41061;52.822;6.860;2022-10-22T16:33:12;14.60;99.90
55173;DHT22;41061;52.822;6.860;2022-10-22T16:35:41;14.50;99.90
55173;DHT22;41061;52.822;6.860;2022-10-22T16:38:09;14.50;99.90
55173;DHT22;41061;52.822;6.860;2022-10-22T16:40:35;14.30;99.90
55173;DHT22;41061;52.822;6.860;2022-10-22T16:43:01;14.30;99.90
55173;DHT22;41061;52.822;6.860;2022-10-22T16:45:26;14.20;99.90
55173;DHT22;41061;52.822;6.860;2022-10-22T16:47:52;14.10;99.90
55173;DHT22;41061;52.822;6.860;2022-10-22T16:50:18;14.00;99.90
55173;DHT22;41061;52.822;6.860;2022-10-22T16:52:44;13.90;99.90
55173;DHT22;41061;52.822;6.860;2022-10-22T16:55:09;13.90;99.90
55173;DHT22;41061;52.822;6.860;2022-10-22T16:57:35;13.80;99.90
55173;DHT22;41061;52.822;6.860;2022-10-22T17:00:02;13.80;99.90
55173;DHT22;41061;52.822;6.860;2022-10-22T17:02:28;13.70;99.90
55173;DHT22;41061;52.822;6.860;2022-10-22T17:04:54;13.60;99.90
55173;DHT22;41061;52.822;6.860;2022-10-22T17:07:20;13.60;99.90
55173;DHT22;41061;52.822;6.860;2022-10-22T17:09:45;13.50;99.90
55173;DHT22;41061;52.822;6.860;2022-10-22T17:12:11;13.50;99.90
55173;DHT22;41061;52.822;6.860;2022-10-22T17:14:37;13.40;99.90
55173;DHT22;41061;52.822;6.860;2022-10-22T17:17:02;13.40;99.90
55173;DHT22;41061;52.822;6.860;2022-10-22T17:19:29;13.30;99.90